This is the latest recevied weather packets stored in our database for station/object SQ5OUZ-1. If no packets are shown the sender has not sent any weather packets the latest 1 day(s).
| Time | Temp. | Humidity | Pressure | Rain* | Wind** | Luminosity | Snow |
|---|---|---|---|---|---|---|---|
| 1778046040 | 20° C | 37% | 1006.9 hPa | - | - | - | - |
| 1778045136 | 17.78° C | 42% | 1006.9 hPa | - | - | - | - |
| 1778044233 | 18.33° C | 41% | 1006.9 hPa | - | - | - | - |
| 1778043330 | 19.44° C | 37% | 1007 hPa | - | - | - | - |
| 1778042427 | 20° C | 36% | 1006.9 hPa | - | - | - | - |
| 1778040620 | 15.56° C | 46% | 1007.3 hPa | - | - | - | - |
| 1778039717 | 14.44° C | 49% | 1007.2 hPa | - | - | - | - |
| 1778037007 | 13.89° C | 49% | 1007.1 hPa | - | - | - | - |
| 1778036104 | 14.44° C | 48% | 1007.2 hPa | - | - | - | - |
| 1778035200 | 15° C | 46% | 1007.2 hPa | - | - | - | - |
| 1778033394 | 15.56° C | 43% | 1007.3 hPa | - | - | - | - |
| 1778032491 | 16.11° C | 41% | 1007.3 hPa | - | - | - | - |
| 1778030684 | 17.22° C | 37% | 1007.4 hPa | - | - | - | - |
| 1778029781 | 17.22° C | 36% | 1007.3 hPa | - | - | - | - |
| 1778028878 | 17.22° C | 37% | 1007.3 hPa | - | - | - | - |
| 1778027974 | 16.67° C | 38% | 1007.4 hPa | - | - | - | - |
| 1778027071 | 16.67° C | 38% | 1007.4 hPa | - | - | - | - |
| 1778026168 | 16.11° C | 38% | 1007.4 hPa | - | - | - | - |
| 1778025265 | 16.67° C | 38% | 1007.5 hPa | - | - | - | - |
| 1778021652 | 17.22° C | 37% | 1007.6 hPa | - | - | - | - |
| 1778018941 | 18.33° C | 35% | 1007.6 hPa | - | - | - | - |
* Rain since midnight (hover to see other rain measurements)
** Current wind speed in m/s (hover to see current wind gust speed)